Главная страница
METAR-TAF:

METAR-TAF

Аэропорты :

Сиань, Китай

широта: 34-26N, долгота: 108-45E, высота над уровнем моря: 479 м

Текущие метеонаблюдения

Эта сводка был подготовлена 39 минут назад, в 21:00 UTC
Ветер 2 Узел от западный
Температура 6°C
Влажность 100%
Давление 1015 hPa
Видимость: 5000 м
дымка

METAR: ZLXY 252100Z 28001MPS 5000 BR NSC 06/06 Q1015 NOSIG

Время: 05:39 (21:39 UTC)

Прогноз

Эта сводка был подготовлена 6 часа и 16 минут назад, в 15:23 UTC
Прогноз действительный с 25-го 18 UTC до 26-го 18 UTC
Ветер 6 Узел от западный
Видимость: 3000 м
дымка
временами
С 25-го 18 UTC до 25-го 24 UTC
Видимость: 0700 м
туман

TAF: ZLXY 251523Z 2518/2618 27003MPS 3000 BR NSC TX26/2608Z TN09/2522Z TEMPO 2518/2524 0700 FG

Метеонаблюдения и прогнозы для более 4000 аэропортов (сводки METAR и TAF).

Имеющиеся станции представлены на карте желтыми и красными точками.

Чтобы увидеть название станции, наведите на нее мышь.

Затем щелкните, чтобы увидеть метеонаблюдения и метеопрогнозы.

Управление картой: чтобы увеличить масштаб, щелкните зеленые кнопки с черным крестиком; чтобы уменьшить масштаб, щелкните зеленую кнопку с тире; для просмотра соседних карт щелкайте зеленые стрелки.


METAR-TAF: